Time;durP1;ratioP1;P1;durP2;ratioP2;P2;SDS_P1;SDS_P2;PMS_P1;PMS_P2;Temp;Humidity;BMP_temperature;BMP_pressure;BME280_temperature;BME280_humidity;BME280_pressure;Samples;Min_cycle;Max_cycle;Signal;HPM_P1;HPM_P2
2021/10/07 00:02:11;;;;;;;;;;;;;;;;;;;;;
2021/10/07 00:05:57;;;;;;;12.73;11.40;;;13.80;99.90;;;;;;6151174;22;20525;-85
2021/10/07 00:09:03;;;;;;;14.27;11.00;;;13.70;99.90;;;;;;6274711;22;21128;-86
2021/10/07 00:11:56;;;;;;;13.50;11.10;;;13.70;99.90;;;;;;6253502;22;20969;-87
2021/10/07 00:15:02;;;;;;;13.53;11.27;;;13.80;99.90;;;;;;6190669;22;20412;-88
2021/10/07 00:34:06;;;;;;;;;;;;;;;;;;;;;
2021/10/07 00:36:55;;;;;;;11.00;9.90;;;13.90;99.90;;;;;;6225292;22;20438;-86
2021/10/07 00:39:50;;;;;;;15.00;11.80;;;13.80;99.90;;;;;;6220852;22;20749;-86
2021/10/07 00:42:23;;;;;;;12.27;10.97;;;13.80;99.90;;;;;;6220257;22;20391;-87
2021/10/07 00:44:53;;;;;;;16.73;11.40;;;13.80;99.90;;;;;;6223153;22;20483;-86
2021/10/07 00:51:18;;;;;;;12.63;10.30;;;13.80;99.90;;;;;;6246944;22;20373;-85
2021/10/07 00:58:14;;;;;;;15.83;10.27;;;13.90;99.90;;;;;;6245720;22;20394;-88
2021/10/07 01:00:55;;;;;;;10.87;9.20;;;13.90;99.90;;;;;;6133134;22;20433;-87
2021/10/07 01:03:58;;;;;;;11.30;10.10;;;13.90;99.90;;;;;;6249315;22;21159;-88
2021/10/07 01:11:13;;;;;;;11.67;9.10;;;14.00;99.90;;;;;;6252103;22;20414;-86
2021/10/07 01:18:03;;;;;;;13.50;10.90;;;13.90;99.90;;;;;;6175005;23;20404;-90
2021/10/07 01:20:47;;;;;;;12.83;9.60;;;13.90;99.90;;;;;;6145996;22;20456;-86
2021/10/07 01:31:40;;;;;;;13.87;11.23;;;13.90;99.90;;;;;;6186363;23;20446;-87
2021/10/07 01:34:09;;;;;;;13.67;11.00;;;13.90;99.90;;;;;;6196610;23;20410;-88
2021/10/07 01:36:36;;;;;;;18.13;11.10;;;13.90;99.90;;;;;;6180069;23;20441;-86
2021/10/07 01:39:05;;;;;;;16.13;11.50;;;13.90;99.90;;;;;;6165838;23;20457;-87
2021/10/07 01:41:32;;;;;;;13.40;11.57;;;13.90;99.90;;;;;;6181369;23;20454;-87
2021/10/07 01:43:59;;;;;;;14.57;11.80;;;13.90;99.90;;;;;;6167731;23;20520;-85
2021/10/07 01:46:25;;;;;;;13.63;12.27;;;13.90;99.90;;;;;;6169613;23;20420;-88
2021/10/07 01:48:52;;;;;;;13.93;12.53;;;13.90;99.90;;;;;;6167820;23;20416;-87
2021/10/07 01:51:19;;;;;;;17.30;12.00;;;13.90;99.90;;;;;;6142083;23;21004;-86
2021/10/07 01:53:46;;;;;;;15.20;11.40;;;13.90;99.90;;;;;;6177321;23;20397;-89
2021/10/07 01:56:13;;;;;;;13.80;10.90;;;13.80;99.90;;;;;;6191492;23;20489;-88
2021/10/07 01:58:41;;;;;;;13.30;11.97;;;13.90;99.90;;;;;;6193768;23;20428;-88
2021/10/07 02:01:08;;;;;;;13.93;12.57;;;13.90;99.90;;;;;;6233941;22;20483;-88
2021/10/07 02:03:34;;;;;;;13.23;11.87;;;13.90;99.90;;;;;;6258216;22;20395;-88
2021/10/07 02:06:01;;;;;;;13.60;12.17;;;14.00;99.90;;;;;;6245280;22;20419;-88
2021/10/07 02:08:28;;;;;;;16.00;12.23;;;14.00;99.90;;;;;;6251143;23;20423;-87
2021/10/07 02:10:56;;;;;;;13.37;11.97;;;14.10;99.90;;;;;;6254649;22;20430;-88
2021/10/07 02:13:23;;;;;;;14.27;12.60;;;14.10;99.90;;;;;;6257065;23;20404;-85
2021/10/07 02:15:50;;;;;;;21.07;11.40;;;14.00;99.90;;;;;;6247731;23;20467;-88
2021/10/07 02:18:22;;;;;;;13.27;11.97;;;14.10;99.90;;;;;;6234595;23;20407;-87
2021/10/07 02:20:49;;;;;;;17.43;12.47;;;14.00;99.90;;;;;;6232453;22;20474;-86
2021/10/07 02:23:15;;;;;;;15.40;12.13;;;14.00;99.90;;;;;;6239101;22;20417;-88
2021/10/07 02:25:42;;;;;;;12.90;11.50;;;14.00;99.90;;;;;;6239014;22;20419;-88
2021/10/07 02:28:13;;;;;;;15.63;12.47;;;14.10;99.90;;;;;;6240985;22;20476;-87
2021/10/07 02:30:42;;;;;;;14.03;12.60;;;14.10;99.90;;;;;;6236848;22;20446;-88
2021/10/07 02:33:11;;;;;;;13.77;12.00;;;14.10;99.90;;;;;;6268795;22;20407;-88
2021/10/07 02:35:38;;;;;;;21.83;11.93;;;14.10;99.90;;;;;;6267163;22;20890;-88
2021/10/07 02:38:06;;;;;;;14.97;12.07;;;14.10;99.90;;;;;;6240111;22;20918;-90
2021/10/07 02:40:43;;;;;;;;;;;;;;;;;;;;;
2021/10/07 02:43:12;;;;;;;14.50;12.80;;;14.10;99.90;;;;;;6264562;22;20407;-86
2021/10/07 02:45:40;;;;;;;16.00;12.50;;;14.10;99.90;;;;;;6266690;22;20403;-88
2021/10/07 02:48:08;;;;;;;14.57;11.97;;;14.10;99.90;;;;;;6240748;22;20511;-88
2021/10/07 02:50:47;;;;;;;13.27;11.87;;;14.10;99.90;;;;;;6245335;22;20431;-88
2021/10/07 02:53:14;;;;;;;16.20;11.63;;;14.00;99.90;;;;;;6239607;22;20881;-87
2021/10/07 02:55:44;;;;;;;12.70;11.30;;;14.00;99.90;;;;;;6268396;22;20435;-88
2021/10/07 02:58:12;;;;;;;12.50;11.13;;;13.90;99.90;;;;;;6239640;22;20439;-88
2021/10/07 03:00:49;;;;;;;15.00;11.40;;;13.90;99.90;;;;;;6266045;22;20430;-87
2021/10/07 03:03:19;;;;;;;15.43;11.80;;;13.90;99.90;;;;;;6237201;22;20376;-88
2021/10/07 03:06:18;;;;;;;13.53;11.43;;;13.90;99.90;;;;;;6241795;22;20414;-87
2021/10/07 03:08:44;;;;;;;14.47;11.80;;;13.90;99.90;;;;;;6239505;22;20409;-85
2021/10/07 03:11:15;;;;;;;22.93;12.97;;;13.80;99.90;;;;;;6258005;22;20437;-90
2021/10/07 03:14:00;;;;;;;12.80;11.50;;;13.90;99.90;;;;;;6235336;22;20494;-89
2021/10/07 03:16:27;;;;;;;14.77;11.90;;;13.90;99.90;;;;;;6231701;22;20433;-88
2021/10/07 03:19:07;;;;;;;13.80;11.07;;;13.90;99.90;;;;;;6230639;22;20403;-87
2021/10/07 03:21:38;;;;;;;17.63;14.33;;;13.90;99.90;;;;;;6223431;22;21243;-87
2021/10/07 03:24:06;;;;;;;19.43;12.23;;;13.80;99.90;;;;;;6227742;23;20431;-88
2021/10/07 03:26:33;;;;;;;14.60;12.17;;;13.80;99.90;;;;;;6229486;22;20416;-88
2021/10/07 03:29:02;;;;;;;18.10;12.03;;;13.70;99.90;;;;;;6232023;23;20410;-89
2021/10/07 03:31:29;;;;;;;14.20;11.70;;;13.80;99.90;;;;;;6226927;22;20436;-85
2021/10/07 03:34:00;;;;;;;17.50;12.60;;;13.80;99.90;;;;;;6221146;23;20416;-87
2021/10/07 03:36:27;;;;;;;16.90;12.87;;;13.80;99.90;;;;;;6217769;23;20439;-86
2021/10/07 03:38:56;;;;;;;18.90;13.07;;;13.80;99.90;;;;;;6228750;23;20396;-89
2021/10/07 03:41:26;;;;;;;19.67;14.40;;;13.80;99.90;;;;;;6230015;22;20428;-86
2021/10/07 03:43:54;;;;;;;15.73;12.97;;;13.80;99.90;;;;;;6230544;23;20408;-89
2021/10/07 03:46:22;;;;;;;14.37;12.30;;;13.80;99.90;;;;;;6228765;23;20448;-88
2021/10/07 03:48:51;;;;;;;19.93;13.73;;;13.80;99.90;;;;;;6221494;23;20473;-90
2021/10/07 03:51:19;;;;;;;18.20;13.90;;;13.80;99.90;;;;;;6233875;22;20428;-86
2021/10/07 03:54:10;;;;;;;15.27;12.23;;;13.80;99.90;;;;;;6228658;23;20483;-88
2021/10/07 03:56:39;;;;;;;17.57;12.90;;;13.80;99.90;;;;;;6228188;22;20793;-87
2021/10/07 03:59:07;;;;;;;17.87;13.73;;;13.80;99.90;;;;;;6237431;23;20402;-89
2021/10/07 04:01:33;;;;;;;19.03;14.63;;;13.90;99.90;;;;;;6236455;22;20487;-88
2021/10/07 04:04:02;;;;;;;20.40;14.00;;;13.90;99.90;;;;;;6230341;23;21119;-88
2021/10/07 04:06:41;;;;;;;21.40;14.40;;;13.90;99.90;;;;;;6239857;22;20438;-88
2021/10/07 04:09:15;;;;;;;17.57;13.97;;;13.90;99.90;;;;;;6241695;22;20437;-88
2021/10/07 04:11:45;;;;;;;18.57;13.57;;;14.00;99.90;;;;;;6233699;22;20436;-89
2021/10/07 04:14:32;;;;;;;19.57;14.00;;;13.90;99.90;;;;;;6232193;23;20712;-87
2021/10/07 04:16:59;;;;;;;17.67;13.23;;;14.00;99.90;;;;;;6233206;23;20505;-88
2021/10/07 04:19:31;;;;;;;16.97;13.77;;;14.00;99.90;;;;;;6225826;23;20436;-91
2021/10/07 04:22:00;;;;;;;17.83;14.77;;;14.10;99.90;;;;;;6207308;22;20435;-88
2021/10/07 04:24:26;;;;;;;19.00;14.37;;;14.20;99.90;;;;;;6232221;22;20415;-89
2021/10/07 04:26:54;;;;;;;25.67;15.10;;;14.10;99.90;;;;;;6259680;22;21131;-87
2021/10/07 04:29:22;;;;;;;20.33;14.60;;;14.20;99.90;;;;;;6234119;22;20822;-88
2021/10/07 04:31:49;;;;;;;21.13;16.20;;;14.20;99.90;;;;;;6220125;22;20441;-88
2021/10/07 04:34:16;;;;;;;25.43;16.50;;;14.50;99.90;;;;;;6240747;22;20449;-87
2021/10/07 04:36:44;;;;;;;28.40;16.70;;;14.80;99.90;;;;;;6228983;22;20495;-88
2021/10/07 04:39:11;;;;;;;24.87;15.83;;;14.60;99.90;;;;;;6229740;22;20487;-89
2021/10/07 04:41:38;;;;;;;24.07;16.30;;;14.40;99.90;;;;;;6251936;22;20876;-87
2021/10/07 04:44:06;;;;;;;23.40;15.87;;;14.30;99.90;;;;;;6229757;22;20384;-89
2021/10/07 04:46:33;;;;;;;24.30;15.77;;;14.20;99.90;;;;;;6230125;22;20415;-88
2021/10/07 04:49:09;;;;;;;23.67;16.53;;;14.10;99.90;;;;;;6229694;22;20386;-88
2021/10/07 04:51:37;;;;;;;23.90;15.63;;;14.10;99.90;;;;;;6228576;22;20434;-87
2021/10/07 04:54:04;;;;;;;22.70;15.77;;;14.10;99.90;;;;;;6230163;22;20418;-89
2021/10/07 04:56:34;;;;;;;21.80;14.63;;;14.10;99.90;;;;;;6229681;22;21106;-88
2021/10/07 04:59:02;;;;;;;23.50;17.27;;;14.10;99.90;;;;;;6260080;22;20399;-87
2021/10/07 05:01:29;;;;;;;25.00;15.40;;;14.10;99.90;;;;;;6205437;22;20589;-86
2021/10/07 05:03:59;;;;;;;25.83;18.97;;;14.00;99.90;;;;;;6259408;22;20422;-88
2021/10/07 05:06:35;;;;;;;25.47;17.53;;;14.00;99.90;;;;;;6228656;22;21158;-88
2021/10/07 05:09:05;;;;;;;23.23;17.20;;;14.00;99.90;;;;;;6241434;22;20917;-89
2021/10/07 05:11:32;;;;;;;22.70;16.20;;;14.00;99.90;;;;;;6216350;22;20446;-88
2021/10/07 05:13:59;;;;;;;25.70;17.37;;;14.00;99.90;;;;;;6244271;22;20982;-87
2021/10/07 05:16:29;;;;;;;28.63;18.27;;;14.00;99.90;;;;;;6214102;22;20587;-88
2021/10/07 05:19:09;;;;;;;25.33;16.97;;;14.00;99.90;;;;;;6215154;22;20414;-88
2021/10/07 05:21:36;;;;;;;24.50;17.00;;;14.00;99.90;;;;;;6209030;22;20463;-88
2021/10/07 05:24:22;;;;;;;23.33;17.37;;;14.00;99.90;;;;;;6208076;23;20404;-88
2021/10/07 05:27:02;;;;;;;;;;;;;;;;;;;;;
2021/10/07 05:29:54;;;;;;;22.27;16.17;;;14.10;99.90;;;;;;6205181;22;20395;-86
2021/10/07 05:32:20;;;;;;;25.10;16.60;;;14.10;99.90;;;;;;6207444;23;20462;-88
2021/10/07 05:34:54;;;;;;;24.43;16.20;;;14.10;99.90;;;;;;6210707;23;20416;-88
2021/10/07 05:37:20;;;;;;;25.87;16.37;;;14.10;99.90;;;;;;6207430;23;20440;-91
2021/10/07 05:42:22;;;;;;;29.40;15.97;;;14.10;99.90;;;;;;6241846;22;20447;-89
2021/10/07 05:44:49;;;;;;;27.70;18.57;;;14.10;99.90;;;;;;6211476;22;20415;-88
2021/10/07 05:47:16;;;;;;;27.90;17.40;;;14.50;99.90;;;;;;6215745;22;20411;-88
2021/10/07 05:49:45;;;;;;;23.07;16.23;;;14.40;99.90;;;;;;6214979;22;20625;-87
2021/10/07 05:52:12;;;;;;;22.90;17.63;;;14.30;99.90;;;;;;6219628;22;20426;-87
2021/10/07 05:54:45;;;;;;;21.53;16.80;;;14.20;99.90;;;;;;6219109;22;20438;-87
2021/10/07 05:57:18;;;;;;;22.33;16.23;;;14.20;99.90;;;;;;6214963;22;20442;-87
2021/10/07 05:59:52;;;;;;;26.63;17.70;;;14.20;99.90;;;;;;6209858;22;20994;-89
2021/10/07 06:02:18;;;;;;;24.90;17.70;;;14.30;99.90;;;;;;6214029;22;20454;-89
2021/10/07 06:04:45;;;;;;;26.50;17.67;;;14.20;99.90;;;;;;6211770;22;20434;-87
2021/10/07 06:07:12;;;;;;;26.20;17.53;;;14.20;99.90;;;;;;6205286;22;20427;-88
2021/10/07 06:12:50;;;;;;;26.30;18.67;;;14.40;99.90;;;;;;6269897;22;20800;-88
2021/10/07 06:15:17;;;;;;;28.67;17.80;;;14.30;99.90;;;;;;6263769;22;20449;-88
2021/10/07 06:17:48;;;;;;;25.43;16.70;;;14.30;99.90;;;;;;6238204;22;20968;-88
2021/10/07 06:21:01;;;;;;;28.07;17.67;;;14.30;99.90;;;;;;6263164;22;20985;-91
2021/10/07 06:23:11;;;;;;;28.60;18.70;;;14.30;99.90;;;;;;6282692;22;20406;-89
2021/10/07 06:26:23;;;;;;;27.60;17.40;;;14.40;99.90;;;;;;6298698;22;20488;-90
2021/10/07 06:28:50;;;;;;;25.53;16.47;;;14.40;99.90;;;;;;6261086;22;20434;-89
2021/10/07 06:31:18;;;;;;;30.07;20.47;;;14.40;99.90;;;;;;6281212;22;20435;-92
2021/10/07 06:33:54;;;;;;;28.93;17.50;;;14.30;99.90;;;;;;6250459;22;20442;-87
2021/10/07 06:36:20;;;;;;;25.63;17.77;;;14.40;99.90;;;;;;6226955;22;20399;-88
2021/10/07 06:38:47;;;;;;;27.10;16.60;;;14.40;99.90;;;;;;6207951;22;20552;-89
2021/10/07 06:41:17;;;;;;;31.63;19.90;;;14.50;99.90;;;;;;6228417;22;20490;-91
2021/10/07 06:43:50;;;;;;;33.40;19.40;;;14.50;99.90;;;;;;6230738;22;20415;-89
2021/10/07 06:46:43;;;;;;;24.77;17.90;;;14.50;99.90;;;;;;6255852;22;20399;-87
2021/10/07 06:49:16;;;;;;;26.67;16.47;;;14.40;99.90;;;;;;6210797;22;20415;-88
2021/10/07 06:51:55;;;;;;;27.97;19.37;;;14.40;99.90;;;;;;6224498;22;20989;-89
2021/10/07 06:54:34;;;;;;;29.40;18.60;;;14.50;99.90;;;;;;6263390;22;20411;-88
2021/10/07 06:57:00;;;;;;;27.90;17.40;;;14.60;99.90;;;;;;6233104;22;20885;-88
2021/10/07 06:59:27;;;;;;;22.97;17.03;;;14.60;99.90;;;;;;6176829;22;20461;-89
2021/10/07 07:01:55;;;;;;;32.40;18.53;;;14.50;99.90;;;;;;6234376;22;20455;-87
2021/10/07 07:04:30;;;;;;;27.17;18.40;;;14.60;99.90;;;;;;6227809;22;20404;-89
2021/10/07 07:07:02;;;;;;;26.10;17.47;;;14.50;99.90;;;;;;6257103;22;20419;-87
2021/10/07 07:09:29;;;;;;;28.87;19.00;;;14.50;99.90;;;;;;6221434;22;20395;-88
2021/10/07 07:12:18;;;;;;;30.33;18.73;;;14.50;99.90;;;;;;6227564;22;20458;-88
2021/10/07 07:14:53;;;;;;;35.20;20.30;;;14.60;99.90;;;;;;6189680;22;20404;-89
2021/10/07 07:17:42;;;;;;;39.23;20.27;;;15.10;99.90;;;;;;6204827;22;20577;-88
2021/10/07 07:20:15;;;;;;;29.17;19.17;;;15.10;99.90;;;;;;6169865;22;20411;-87
2021/10/07 07:22:47;;;;;;;36.43;21.33;;;14.90;99.90;;;;;;6201949;22;21065;-89
2021/10/07 07:25:41;;;;;;;29.80;19.90;;;14.80;99.90;;;;;;6201332;22;20419;-89
2021/10/07 07:28:07;;;;;;;30.37;20.20;;;14.80;99.90;;;;;;6203581;22;21405;-87
2021/10/07 07:30:34;;;;;;;30.33;19.10;;;16.00;99.90;;;;;;6203038;22;20430;-88
2021/10/07 07:33:01;;;;;;;27.83;18.90;;;17.60;99.90;;;;;;6201782;22;20746;-87
2021/10/07 07:35:41;;;;;;;26.00;19.80;;;18.10;99.90;;;;;;6202317;22;20418;-88
2021/10/07 07:38:08;;;;;;;24.80;17.83;;;18.00;99.90;;;;;;6198710;22;20470;-89
2021/10/07 07:40:36;;;;;;;27.97;20.30;;;17.60;99.90;;;;;;6227298;22;20423;-85
2021/10/07 07:43:06;;;;;;;26.23;18.17;;;17.50;99.90;;;;;;6199528;22;20975;-86
2021/10/07 07:45:39;;;;;;;27.13;18.90;;;17.80;99.90;;;;;;6198776;22;21440;-88
2021/10/07 07:48:05;;;;;;;28.47;20.50;;;18.10;99.90;;;;;;6223539;22;20889;-88
2021/10/07 07:50:34;;;;;;;25.50;17.57;;;17.80;99.90;;;;;;6229577;22;20929;-89
2021/10/07 07:53:04;;;;;;;32.40;19.30;;;17.30;99.90;;;;;;6204271;22;20828;-86
2021/10/07 07:55:34;;;;;;;23.87;18.03;;;17.00;99.90;;;;;;6203514;22;20407;-88
2021/10/07 07:58:12;;;;;;;28.83;19.80;;;16.60;99.90;;;;;;6221103;22;20463;-88
2021/10/07 08:00:54;;;;;;;24.30;19.73;;;16.30;99.90;;;;;;6201533;22;20429;-87
2021/10/07 08:03:25;;;;;;;34.27;20.73;;;16.20;99.90;;;;;;6202284;22;20916;-87
2021/10/07 08:05:55;;;;;;;32.37;20.80;;;16.10;99.90;;;;;;6206517;22;21081;-87
2021/10/07 08:08:28;;;;;;;27.80;19.77;;;15.70;99.90;;;;;;6229987;22;20455;-87
2021/10/07 08:11:00;;;;;;;28.00;19.63;;;15.60;99.90;;;;;;6200811;22;20451;-88
2021/10/07 08:13:28;;;;;;;30.03;20.07;;;15.70;99.90;;;;;;6203177;22;20458;-88
2021/10/07 08:16:00;;;;;;;28.50;19.67;;;15.60;99.90;;;;;;6232809;22;20411;-87
2021/10/07 08:18:27;;;;;;;29.27;19.83;;;15.60;99.90;;;;;;6206147;22;20841;-87
2021/10/07 08:20:57;;;;;;;32.73;19.97;;;15.70;99.90;;;;;;6206186;22;20427;-88
2021/10/07 08:23:28;;;;;;;33.90;20.57;;;15.70;99.90;;;;;;6207165;22;20403;-88
2021/10/07 08:25:57;;;;;;;27.67;18.90;;;15.80;99.90;;;;;;6203553;22;20407;-90
2021/10/07 08:28:24;;;;;;;30.07;18.83;;;15.90;99.90;;;;;;6203767;22;20441;-88
2021/10/07 08:30:51;;;;;;;27.43;19.30;;;15.90;99.90;;;;;;6201126;22;20465;-89
2021/10/07 08:33:21;;;;;;;28.63;19.37;;;16.20;99.90;;;;;;6202589;22;20425;-89
2021/10/07 08:35:56;;;;;;;26.17;19.37;;;16.30;99.90;;;;;;6204384;22;20415;-87
2021/10/07 08:38:44;;;;;;;32.40;20.20;;;16.30;99.90;;;;;;6175303;22;21475;-86
2021/10/07 08:41:16;;;;;;;29.27;19.10;;;16.40;99.90;;;;;;6228524;22;20763;-89
2021/10/07 08:44:08;;;;;;;23.27;17.60;;;16.50;99.90;;;;;;6204228;22;20399;-89
2021/10/07 08:46:46;;;;;;;;;;;;;;;;;;;;;
2021/10/07 08:49:29;;;;;;;23.27;17.70;;;16.60;99.90;;;;;;6230518;22;20443;-90
2021/10/07 08:52:28;;;;;;;21.70;15.80;;;16.70;99.90;;;;;;6236003;22;20426;-87
2021/10/07 08:54:56;;;;;;;24.40;17.60;;;16.60;99.90;;;;;;6205120;22;20743;-88
2021/10/07 08:57:38;;;;;;;23.93;16.37;;;16.40;99.90;;;;;;6207501;22;20443;-90
2021/10/07 09:00:08;;;;;;;24.40;17.17;;;16.70;99.90;;;;;;6204188;22;20510;-87
2021/10/07 09:02:38;;;;;;;21.20;16.17;;;17.00;99.90;;;;;;6262791;22;20916;-90
2021/10/07 09:05:55;;;;;;;21.70;15.37;;;17.10;99.90;;;;;;6231463;22;20421;-88
2021/10/07 09:08:24;;;;;;;18.90;14.53;;;16.90;99.90;;;;;;6237787;22;20896;-88
2021/10/07 09:11:07;;;;;;;20.90;15.87;;;16.80;99.90;;;;;;6199697;22;20456;-89
2021/10/07 09:13:35;;;;;;;23.23;17.00;;;16.80;99.90;;;;;;6261178;22;20932;-90
2021/10/07 09:16:02;;;;;;;21.13;14.70;;;16.60;99.90;;;;;;6255836;22;20402;-89
2021/10/07 09:18:31;;;;;;;18.97;13.77;;;16.70;99.90;;;;;;6257941;22;20441;-89
2021/10/07 09:20:59;;;;;;;20.07;13.37;;;16.50;99.90;;;;;;6218087;22;20427;-88
2021/10/07 09:23:33;;;;;;;18.70;13.80;;;16.60;99.90;;;;;;6199613;22;20425;-88
2021/10/07 09:26:12;;;;;;;17.83;14.63;;;16.60;99.90;;;;;;6214990;22;20395;-85
2021/10/07 09:29:03;;;;;;;20.50;14.80;;;16.60;99.90;;;;;;6224321;22;20415;-86
2021/10/07 09:31:32;;;;;;;21.43;14.87;;;16.70;99.90;;;;;;6210991;22;20453;-87
2021/10/07 09:34:02;;;;;;;18.37;12.90;;;16.70;99.90;;;;;;6206994;22;20637;-87
2021/10/07 09:36:31;;;;;;;15.63;12.40;;;16.80;99.90;;;;;;6202333;22;20649;-89
2021/10/07 09:39:03;;;;;;;17.33;13.53;;;17.80;98.90;;;;;;6204436;22;20440;-87
2021/10/07 09:41:37;;;;;;;18.73;11.70;;;19.10;96.20;;;;;;6203340;22;20518;-87
2021/10/07 09:44:13;;;;;;;15.20;11.90;;;20.00;93.40;;;;;;6198973;22;20520;-87
2021/10/07 09:46:55;;;;;;;19.80;13.87;;;20.10;92.00;;;;;;6192214;22;20525;-86
2021/10/07 09:49:35;;;;;;;16.83;13.13;;;19.00;93.20;;;;;;6204055;22;20511;-87
2021/10/07 09:52:58;;;;;;;17.77;13.90;;;18.90;95.10;;;;;;6228265;22;20509;-87
2021/10/07 09:55:31;;;;;;;18.10;13.83;;;19.90;93.50;;;;;;6224460;22;20408;-87
2021/10/07 09:58:13;;;;;;;17.57;14.13;;;20.50;92.40;;;;;;6199687;22;20615;-87
2021/10/07 10:00:43;;;;;;;17.17;14.20;;;20.50;91.30;;;;;;6199178;22;20803;-87
2021/10/07 10:03:11;;;;;;;19.33;13.77;;;20.20;91.60;;;;;;6196221;22;20415;-87
2021/10/07 10:05:39;;;;;;;18.47;14.93;;;19.60;92.60;;;;;;6186975;22;20426;-87
2021/10/07 10:08:12;;;;;;;16.27;14.27;;;19.60;93.40;;;;;;6200465;22;20425;-87
2021/10/07 10:10:42;;;;;;;17.80;14.40;;;19.20;94.20;;;;;;6203527;22;20431;-86
2021/10/07 10:13:10;;;;;;;19.60;14.10;;;19.00;94.20;;;;;;6198630;22;20697;-87
2021/10/07 10:15:38;;;;;;;15.27;12.10;;;18.60;94.40;;;;;;6199154;22;20403;-86
2021/10/07 10:18:09;;;;;;;16.10;11.50;;;18.40;95.40;;;;;;6202961;22;20534;-89
2021/10/07 10:23:15;;;;;;;19.87;14.10;;;18.10;94.70;;;;;;6258153;22;20445;-88
2021/10/07 10:25:51;;;;;;;15.80;12.60;;;17.70;95.10;;;;;;6238764;22;20970;-87
2021/10/07 10:28:57;;;;;;;16.43;12.63;;;17.50;95.70;;;;;;6237734;22;20413;-89
2021/10/07 10:31:41;;;;;;;14.93;12.13;;;17.30;95.90;;;;;;6230847;22;20439;-88
2021/10/07 10:34:15;;;;;;;15.10;11.50;;;17.20;96.10;;;;;;6218373;22;20403;-88
2021/10/07 10:36:51;;;;;;;18.13;12.23;;;17.00;96.90;;;;;;6215536;22;20452;-87
2021/10/07 10:39:32;;;;;;;17.07;14.17;;;16.90;97.30;;;;;;6215996;22;20442;-88
2021/10/07 10:42:45;;;;;;;14.40;11.20;;;17.00;97.40;;;;;;6208931;22;20454;-87
2021/10/07 10:45:11;;;;;;;15.37;11.93;;;17.20;97.30;;;;;;6198278;22;20403;-87
2021/10/07 10:47:56;;;;;;;17.30;13.67;;;17.20;97.30;;;;;;6204027;22;20411;-88
2021/10/07 10:50:31;;;;;;;16.43;12.57;;;17.40;96.70;;;;;;6200222;22;20438;-88
2021/10/07 10:52:58;;;;;;;13.13;10.40;;;17.30;97.20;;;;;;6204584;22;20401;-87
2021/10/07 10:55:28;;;;;;;12.80;10.63;;;17.80;96.30;;;;;;6206023;22;20860;-86
2021/10/07 10:58:06;;;;;;;13.03;10.80;;;17.80;95.70;;;;;;6205603;22;20414;-89
2021/10/07 11:00:46;;;;;;;11.87;10.07;;;17.50;95.90;;;;;;6201847;22;20430;-88
2021/10/07 11:03:19;;;;;;;13.30;10.30;;;17.70;96.20;;;;;;6202301;22;20415;-89
2021/10/07 11:06:02;;;;;;;15.73;11.17;;;17.90;95.40;;;;;;6204574;22;20442;-88
2021/10/07 11:08:47;;;;;;;12.10;10.70;;;18.10;95.00;;;;;;6203783;22;20395;-86
2021/10/07 11:11:29;;;;;;;11.37;9.67;;;18.10;94.60;;;;;;6231314;22;20431;-87
2021/10/07 11:13:56;;;;;;;12.07;10.33;;;17.80;94.80;;;;;;6205553;22;21001;-87
2021/10/07 11:16:24;;;;;;;12.83;11.50;;;18.00;95.00;;;;;;6205296;22;20391;-87
2021/10/07 11:18:52;;;;;;;13.30;10.40;;;17.90;94.60;;;;;;6229893;22;20537;-86
2021/10/07 11:21:22;;;;;;;12.03;10.73;;;18.00;94.80;;;;;;6220248;22;20466;-90
2021/10/07 11:23:52;;;;;;;15.70;10.70;;;17.80;94.90;;;;;;6204501;22;21418;-88
2021/10/07 11:26:39;;;;;;;11.57;10.17;;;17.70;95.20;;;;;;6199109;22;20418;-88
2021/10/07 11:29:08;;;;;;;11.87;9.77;;;17.90;95.50;;;;;;6205634;22;20937;-87
2021/10/07 11:31:54;;;;;;;10.67;9.43;;;18.20;94.40;;;;;;6228074;22;20430;-88
2021/10/07 11:34:21;;;;;;;10.73;9.50;;;18.20;93.60;;;;;;6202533;22;20417;-87
2021/10/07 11:36:52;;;;;;;10.97;8.97;;;17.90;94.10;;;;;;6231296;22;20403;-88
2021/10/07 11:39:19;;;;;;;10.30;8.10;;;18.30;92.80;;;;;;6202407;22;20423;-87
2021/10/07 11:41:45;;;;;;;9.57;8.63;;;18.30;92.80;;;;;;6227496;22;20845;-87
2021/10/07 11:44:12;;;;;;;10.67;8.30;;;18.50;92.20;;;;;;6200161;22;20836;-88
2021/10/07 11:46:51;;;;;;;8.90;8.03;;;18.30;92.40;;;;;;6228756;22;20490;-87
2021/10/07 11:49:18;;;;;;;10.73;8.73;;;18.40;92.30;;;;;;6201781;22;20447;-86
2021/10/07 11:51:45;;;;;;;10.10;8.27;;;18.20;92.30;;;;;;6204102;22;20999;-87
2021/10/07 11:54:18;;;;;;;8.70;7.80;;;18.00;93.20;;;;;;6201683;22;20707;-87
2021/10/07 11:56:50;;;;;;;10.47;9.37;;;17.90;93.00;;;;;;6223462;22;20494;-86
2021/10/07 11:59:23;;;;;;;7.93;7.13;;;18.10;92.60;;;;;;6201183;22;20766;-89
2021/10/07 12:01:59;;;;;;;9.20;7.47;;;18.10;92.20;;;;;;6190372;22;20449;-86
2021/10/07 12:04:27;;;;;;;9.33;7.37;;;18.40;91.80;;;;;;6228278;22;20968;-86
2021/10/07 12:06:53;;;;;;;9.20;7.33;;;18.60;91.20;;;;;;6225675;22;20399;-88
2021/10/07 12:09:20;;;;;;;10.23;7.80;;;18.70;90.30;;;;;;6199592;22;20930;-87
2021/10/07 12:11:47;;;;;;;9.17;7.17;;;18.60;90.80;;;;;;6199690;22;20419;-85
2021/10/07 12:14:14;;;;;;;9.13;8.30;;;18.60;90.60;;;;;;6208182;22;20804;-85
2021/10/07 12:16:45;;;;;;;10.37;8.30;;;18.40;91.10;;;;;;6198946;22;20478;-87
2021/10/07 12:19:18;;;;;;;9.47;8.10;;;18.40;91.20;;;;;;6231207;22;20439;-87
2021/10/07 12:21:55;;;;;;;12.17;8.03;;;18.40;91.60;;;;;;6199325;22;20764;-87
2021/10/07 12:24:24;;;;;;;8.47;7.50;;;18.60;91.80;;;;;;6204641;22;20391;-86
2021/10/07 12:26:56;;;;;;;12.13;8.40;;;18.70;91.70;;;;;;6203304;22;20412;-88
2021/10/07 12:29:28;;;;;;;9.47;7.90;;;19.10;90.50;;;;;;6226333;22;20406;-88
2021/10/07 12:32:00;;;;;;;8.83;7.93;;;19.30;90.50;;;;;;6230394;22;20681;-88
2021/10/07 12:34:38;;;;;;;8.97;8.07;;;19.20;90.50;;;;;;6230087;22;20466;-88
2021/10/07 12:37:08;;;;;;;8.07;7.27;;;19.50;90.50;;;;;;6232615;22;20413;-88
2021/10/07 12:39:37;;;;;;;9.50;7.03;;;20.90;85.20;;;;;;6222809;22;20526;-87
2021/10/07 12:42:32;;;;;;;9.20;7.73;;;21.30;81.90;;;;;;6226960;22;20435;-88
2021/10/07 12:45:04;;;;;;;8.83;7.93;;;21.00;81.90;;;;;;6256989;22;20403;-87
2021/10/07 12:47:33;;;;;;;9.90;8.27;;;21.10;83.50;;;;;;6219882;22;20399;-89
2021/10/07 12:50:03;;;;;;;8.13;7.33;;;21.40;81.30;;;;;;6214005;22;20457;-87
2021/10/07 12:52:38;;;;;;;7.77;6.83;;;20.90;81.70;;;;;;6208387;22;20407;-88
2021/10/07 12:55:26;;;;;;;8.80;7.87;;;21.10;82.20;;;;;;6208568;22;20466;-88
2021/10/07 12:57:56;;;;;;;6.87;5.87;;;21.30;80.90;;;;;;6233499;22;20437;-87
2021/10/07 13:00:35;;;;;;;7.27;6.57;;;21.70;77.90;;;;;;6213026;22;20443;-88
2021/10/07 13:03:19;;;;;;;7.77;6.20;;;21.80;77.10;;;;;;6219131;22;20407;-87
2021/10/07 13:05:49;;;;;;;8.70;6.90;;;21.90;77.60;;;;;;6224826;22;20411;-88
2021/10/07 13:08:20;;;;;;;7.10;6.50;;;22.00;76.40;;;;;;6236640;22;20411;-89
2021/10/07 13:11:01;;;;;;;7.57;6.87;;;21.50;77.70;;;;;;6221766;22;20403;-87
2021/10/07 13:13:28;;;;;;;7.73;6.70;;;21.70;77.90;;;;;;6202896;22;20408;-87
2021/10/07 13:15:55;;;;;;;7.20;6.50;;;21.30;77.70;;;;;;6209375;22;20426;-87
2021/10/07 13:18:30;;;;;;;6.20;5.70;;;20.80;79.40;;;;;;6207188;22;20494;-88
2021/10/07 13:20:57;;;;;;;8.40;6.83;;;21.50;79.40;;;;;;6233991;22;20429;-88
2021/10/07 13:23:27;;;;;;;7.47;6.77;;;21.60;78.50;;;;;;6204742;22;20415;-86
2021/10/07 13:26:02;;;;;;;10.20;7.10;;;22.20;75.10;;;;;;6236905;22;20410;-88
2021/10/07 13:28:31;;;;;;;6.53;5.93;;;22.60;72.70;;;;;;6223713;22;20415;-87
2021/10/07 13:34:05;;;;;;;6.80;5.47;;;22.20;72.10;;;;;;6247846;22;20380;-87
2021/10/07 13:36:32;;;;;;;5.87;5.40;;;21.90;71.60;;;;;;6242171;22;20423;-86
2021/10/07 13:39:02;;;;;;;5.77;5.27;;;21.80;72.70;;;;;;6206235;22;20839;-87
2021/10/07 13:41:29;;;;;;;6.17;5.57;;;21.80;71.90;;;;;;6214814;22;20458;-86
2021/10/07 13:43:56;;;;;;;5.70;4.70;;;21.80;70.90;;;;;;6239881;22;20430;-87
2021/10/07 13:46:23;;;;;;;5.30;4.87;;;21.60;69.80;;;;;;6236875;22;20808;-87
2021/10/07 13:48:52;;;;;;;5.30;4.17;;;21.50;69.40;;;;;;6239446;22;20495;-86
2021/10/07 13:51:19;;;;;;;5.20;4.27;;;21.00;69.50;;;;;;6239579;22;21056;-86
2021/10/07 13:53:48;;;;;;;5.60;5.10;;;20.70;71.00;;;;;;6232486;22;20418;-88
2021/10/07 13:56:15;;;;;;;5.43;4.93;;;20.40;72.80;;;;;;6217543;22;20440;-86
2021/10/07 13:58:43;;;;;;;8.70;4.80;;;20.20;73.70;;;;;;6211181;22;20423;-86
2021/10/07 14:01:10;;;;;;;6.40;4.70;;;20.10;74.00;;;;;;6239088;22;20578;-85